Time;durP1;ratioP1;P1;durP2;ratioP2;P2;SDS_P1;SDS_P2;PMS_P1;PMS_P2;Temp;Humidity;BMP_temperature;BMP_pressure;BME280_temperature;BME280_humidity;BME280_pressure;Samples;Min_cycle;Max_cycle;Signal;HPM_P1;HPM_P2
2022/09/05 00:02:03;;;;;;;;;;;24.70;65.20;;;;;;4997347;28;20126;-55
2022/09/05 00:04:46;;;;;;;0.75;0.70;;;24.70;65.20;;;;;;5001159;28;19921;-41
2022/09/05 00:07:24;;;;;;;0.50;0.50;;;24.70;65.00;;;;;;4998992;28;20132;-46
2022/09/05 00:10:14;;;;;;;0.80;0.80;;;24.70;65.20;;;;;;4984477;28;20315;-40
2022/09/05 00:12:39;;;;;;;0.52;0.52;;;24.70;65.10;;;;;;4996399;28;20113;-48
2022/09/05 00:15:10;;;;;;;0.55;0.55;;;24.60;65.20;;;;;;5000545;28;20477;-50
2022/09/05 00:17:51;;;;;;;0.60;0.60;;;24.70;65.20;;;;;;4997071;28;20042;-47
2022/09/05 00:20:38;;;;;;;1.10;0.75;;;24.70;65.20;;;;;;5005437;28;20122;-48
2022/09/05 00:23:25;;;;;;;0.70;0.70;;;24.70;65.20;;;;;;5002159;28;20058;-40
2022/09/05 00:26:19;;;;;;;0.60;0.60;;;24.60;65.10;;;;;;4996606;28;20511;-39
2022/09/05 00:28:50;;;;;;;0.75;0.75;;;24.60;65.30;;;;;;4997490;28;20057;-42
2022/09/05 00:31:18;;;;;;;0.73;0.73;;;24.70;65.30;;;;;;5001106;28;20107;-46
2022/09/05 00:34:20;;;;;;;0.80;0.63;;;24.60;65.10;;;;;;5005226;28;20498;-27
2022/09/05 00:36:53;;;;;;;0.80;0.80;;;24.70;65.90;;;;;;4999531;28;20046;-39
2022/09/05 00:39:24;;;;;;;0.77;0.77;;;24.70;65.20;;;;;;5016722;28;20041;-40
2022/09/05 00:41:51;;;;;;;0.70;0.70;;;24.60;65.10;;;;;;4998656;28;20499;-44
2022/09/05 00:44:18;;;;;;;0.95;0.95;;;24.60;65.20;;;;;;4999306;28;20117;-37
2022/09/05 00:46:55;;;;;;;1.30;0.75;;;24.60;65.30;;;;;;5003097;28;20054;-36
2022/09/05 00:49:23;;;;;;;0.80;0.80;;;24.60;65.30;;;;;;4980720;28;20111;-47
2022/09/05 00:52:13;;;;;;;0.80;0.80;;;24.60;65.40;;;;;;4997412;28;20065;-42
2022/09/05 00:54:44;;;;;;;0.90;0.90;;;24.60;65.40;;;;;;5002352;28;20026;-21
2022/09/05 00:57:40;;;;;;;0.65;0.65;;;24.60;65.30;;;;;;4997937;28;20046;-22
2022/09/05 01:00:11;;;;;;;0.70;0.70;;;24.60;65.30;;;;;;4994463;28;20050;-25
2022/09/05 01:03:15;;;;;;;0.90;0.90;;;24.60;65.30;;;;;;4999702;28;20046;-22
2022/09/05 01:06:06;;;;;;;0.82;0.70;;;24.60;65.40;;;;;;4995607;28;20123;-21
2022/09/05 01:09:27;;;;;;;0.60;0.60;;;24.60;65.30;;;;;;5027235;28;20405;-20
2022/09/05 01:12:03;;;;;;;1.13;0.60;;;24.60;65.30;;;;;;5014096;28;20131;-22
2022/09/05 01:14:56;;;;;;;0.60;0.60;;;24.60;65.50;;;;;;5040442;28;20539;-22
2022/09/05 01:17:47;;;;;;;0.73;0.73;;;24.60;65.30;;;;;;5038770;28;20082;-21
2022/09/05 01:20:34;;;;;;;0.60;0.60;;;24.60;65.20;;;;;;5040003;28;20550;-21
2022/09/05 01:23:09;;;;;;;0.90;0.70;;;24.60;65.40;;;;;;5041187;28;20052;-21
2022/09/05 01:25:40;;;;;;;0.90;0.80;;;24.60;65.40;;;;;;5034714;28;20174;-26
2022/09/05 01:28:11;;;;;;;0.60;0.60;;;24.60;65.30;;;;;;5042897;28;20068;-22
2022/09/05 01:30:46;;;;;;;0.60;0.60;;;24.60;65.30;;;;;;5041923;28;20041;-25
2022/09/05 01:33:48;;;;;;;0.52;0.52;;;24.60;65.30;;;;;;5038272;28;20546;-20
2022/09/05 01:36:43;;;;;;;0.95;0.80;;;24.60;65.30;;;;;;5041939;28;20130;-22
2022/09/05 01:39:16;;;;;;;0.70;0.70;;;24.60;65.30;;;;;;5028503;28;20045;-25
2022/09/05 01:42:00;;;;;;;0.70;0.70;;;24.60;65.20;;;;;;5026905;28;20041;-21
2022/09/05 01:44:27;;;;;;;;;;;24.50;65.10;;;;;;5042598;28;20049;-20
2022/09/05 01:47:05;;;;;;;0.60;0.60;;;24.50;65.40;;;;;;5038670;28;19917;-23
2022/09/05 01:50:01;;;;;;;0.70;0.70;;;24.60;65.20;;;;;;5003653;28;20532;-21
2022/09/05 01:52:45;;;;;;;0.70;0.70;;;24.60;65.30;;;;;;4999891;28;20092;-21
2022/09/05 01:55:15;;;;;;;0.50;0.50;;;24.50;65.40;;;;;;5006129;28;20056;-20
2022/09/05 01:57:43;;;;;;;0.73;0.70;;;24.50;65.30;;;;;;5001185;28;20678;-20
2022/09/05 02:00:11;;;;;;;1.00;0.63;;;24.60;65.20;;;;;;5004359;28;20055;-22
2022/09/05 02:03:13;;;;;;;0.60;0.60;;;24.60;65.10;;;;;;5006341;28;20068;-20
2022/09/05 02:06:23;;;;;;;0.50;0.50;;;24.50;65.30;;;;;;4998310;28;20117;-21
2022/09/05 02:09:13;;;;;;;0.63;0.63;;;24.60;65.20;;;;;;5021391;28;20049;-25
2022/09/05 02:11:49;;;;;;;0.70;0.55;;;24.50;65.20;;;;;;5023279;28;20148;-20
2022/09/05 02:14:37;;;;;;;0.45;0.45;;;24.60;65.10;;;;;;5021185;28;20045;-20
2022/09/05 02:17:29;;;;;;;0.70;0.70;;;24.50;65.10;;;;;;5003499;28;20061;-22
2022/09/05 02:20:06;;;;;;;0.65;0.65;;;24.50;65.40;;;;;;5017084;28;20049;-23
2022/09/05 02:22:43;;;;;;;0.50;0.50;;;24.50;65.40;;;;;;4992654;28;20045;-23
2022/09/05 02:25:15;;;;;;;0.50;0.50;;;24.50;65.40;;;;;;5021431;28;20042;-23
2022/09/05 02:27:53;;;;;;;0.60;0.60;;;24.50;65.30;;;;;;5029311;28;20416;-24
2022/09/05 02:30:21;;;;;;;0.60;0.60;;;24.50;65.40;;;;;;4992735;28;20132;-21
2022/09/05 02:32:53;;;;;;;0.70;0.70;;;24.50;65.30;;;;;;4991136;28;20033;-20
2022/09/05 02:35:50;;;;;;;0.55;0.55;;;24.50;65.30;;;;;;5023910;28;20046;-20
2022/09/05 02:38:38;;;;;;;0.52;0.52;;;24.50;65.20;;;;;;5016216;28;20129;-22
2022/09/05 02:41:10;;;;;;;0.60;0.60;;;24.50;65.40;;;;;;5018197;28;20410;-20
2022/09/05 02:43:46;;;;;;;0.52;0.52;;;24.50;65.30;;;;;;5000656;28;20056;-21
2022/09/05 02:46:29;;;;;;;0.63;0.60;;;24.50;65.30;;;;;;5000324;28;20061;-20
2022/09/05 02:49:11;;;;;;;0.60;0.60;;;24.50;65.30;;;;;;5001145;28;20513;-20
2022/09/05 02:52:06;;;;;;;0.73;0.68;;;24.50;65.20;;;;;;5002670;28;20048;-20
2022/09/05 02:54:34;;;;;;;0.50;0.50;;;24.50;65.30;;;;;;4996726;28;20424;-20
2022/09/05 02:57:18;;;;;;;0.60;0.60;;;24.50;65.40;;;;;;4996487;28;20577;-20
2022/09/05 03:00:04;;;;;;;0.80;0.80;;;24.50;65.30;;;;;;5019639;28;20026;-21
2022/09/05 03:02:53;;;;;;;0.50;0.50;;;24.50;65.40;;;;;;5015799;28;20106;-20
2022/09/05 03:05:28;;;;;;;0.50;0.50;;;24.50;65.30;;;;;;4993517;28;20049;-20
2022/09/05 03:08:08;;;;;;;0.60;0.60;;;24.50;65.40;;;;;;5001469;28;20050;-21
2022/09/05 03:11:02;;;;;;;0.55;0.55;;;24.50;65.30;;;;;;5008088;28;20545;-21
2022/09/05 03:13:34;;;;;;;0.70;0.70;;;24.50;65.30;;;;;;4987683;28;20065;-20
2022/09/05 03:16:18;;;;;;;0.65;0.65;;;24.50;65.40;;;;;;5006836;28;20037;-22
2022/09/05 03:19:21;;;;;;;0.60;0.60;;;24.50;65.40;;;;;;4998558;28;20087;-21
2022/09/05 03:22:12;;;;;;;0.40;0.40;;;24.50;65.30;;;;;;5013137;28;20049;-20
2022/09/05 03:25:05;;;;;;;0.50;0.50;;;24.50;65.30;;;;;;4997899;28;20046;-20
2022/09/05 03:27:46;;;;;;;0.68;0.60;;;24.40;65.30;;;;;;4996316;28;20031;-22
2022/09/05 03:30:26;;;;;;;0.50;0.50;;;24.40;65.40;;;;;;4999350;28;20412;-23
2022/09/05 03:33:29;;;;;;;0.60;0.60;;;24.40;65.40;;;;;;4995071;28;20046;-20
2022/09/05 03:36:19;;;;;;;0.50;0.50;;;24.40;65.30;;;;;;5001086;28;20045;-21
2022/09/05 03:39:03;;;;;;;0.43;0.43;;;24.40;65.30;;;;;;5006025;28;20728;-20
2022/09/05 03:41:45;;;;;;;0.52;0.52;;;24.40;65.30;;;;;;4999438;28;20038;-23
2022/09/05 03:44:19;;;;;;;0.70;0.70;;;24.40;65.30;;;;;;5001125;28;20057;-20
2022/09/05 03:46:54;;;;;;;0.70;0.70;;;24.40;65.30;;;;;;4995160;28;20034;-22
2022/09/05 03:49:34;;;;;;;0.30;0.30;;;24.40;65.30;;;;;;5001550;28;20038;-22
2022/09/05 03:52:10;;;;;;;0.50;0.50;;;24.50;65.20;;;;;;4998539;28;20462;-23
2022/09/05 03:55:04;;;;;;;0.40;0.40;;;24.40;65.30;;;;;;4998761;28;20034;-21
2022/09/05 03:57:46;;;;;;;0.52;0.52;;;24.40;65.30;;;;;;5001777;28;20046;-22
2022/09/05 04:00:22;;;;;;;0.50;0.50;;;24.40;65.20;;;;;;4994145;28;20042;-20
2022/09/05 04:02:57;;;;;;;1.13;0.70;;;24.50;65.30;;;;;;4994628;28;20532;-21
2022/09/05 04:05:25;;;;;;;0.60;0.50;;;24.50;65.10;;;;;;5005551;28;20072;-23
2022/09/05 04:08:05;;;;;;;0.57;0.57;;;24.50;65.10;;;;;;5008932;28;20519;-20
2022/09/05 04:10:50;;;;;;;0.40;0.40;;;24.40;65.30;;;;;;5002563;28;20059;-22
2022/09/05 04:13:26;;;;;;;0.70;0.70;;;24.40;65.20;;;;;;5001754;28;20048;-20
2022/09/05 04:16:14;;;;;;;0.70;0.60;;;24.50;65.20;;;;;;5007791;28;20129;-20
2022/09/05 04:19:03;;;;;;;0.68;0.68;;;24.50;65.20;;;;;;4998374;28;20500;-21
2022/09/05 04:21:31;;;;;;;0.47;0.47;;;24.40;65.10;;;;;;5040360;28;20036;-21
2022/09/05 04:24:19;;;;;;;0.60;0.60;;;24.40;65.20;;;;;;5026435;28;20199;-20
2022/09/05 04:27:00;;;;;;;0.55;0.52;;;24.40;65.20;;;;;;5026999;28;20025;-20
2022/09/05 04:29:38;;;;;;;0.50;0.50;;;24.40;65.10;;;;;;5042211;28;20124;-21
2022/09/05 04:32:21;;;;;;;0.55;0.55;;;24.40;65.30;;;;;;5041997;28;20058;-20
2022/09/05 04:35:02;;;;;;;0.52;0.40;;;24.40;65.20;;;;;;5043144;28;20167;-21
2022/09/05 04:37:50;;;;;;;0.50;0.50;;;24.40;65.30;;;;;;5041658;28;20690;-20
2022/09/05 04:40:46;;;;;;;0.40;0.40;;;24.40;65.30;;;;;;5042575;28;20052;-25
2022/09/05 04:43:38;;;;;;;0.50;0.50;;;24.40;65.20;;;;;;5042608;28;20557;-20
2022/09/05 04:46:04;;;;;;;0.40;0.40;;;24.40;65.30;;;;;;5038999;28;20044;-20
2022/09/05 04:48:43;;;;;;;0.43;0.43;;;24.40;65.20;;;;;;5042535;28;20033;-23
2022/09/05 04:51:22;;;;;;;0.43;0.43;;;24.40;65.30;;;;;;5037102;28;20029;-25
2022/09/05 04:54:24;;;;;;;0.30;0.30;;;24.40;65.30;;;;;;5040567;28;20503;-21
2022/09/05 04:56:52;;;;;;;0.57;0.57;;;24.40;65.30;;;;;;5035556;28;20040;-20
2022/09/05 04:59:25;;;;;;;0.32;0.32;;;24.40;65.30;;;;;;5002266;28;20122;-20
2022/09/05 05:01:57;;;;;;;0.43;0.43;;;24.40;65.30;;;;;;4985260;28;20519;-21
2022/09/05 05:04:23;;;;;;;0.60;0.60;;;24.40;65.10;;;;;;5012502;28;20054;-21
2022/09/05 05:07:00;;;;;;;0.60;0.60;;;24.40;65.10;;;;;;4984098;28;20063;-21
2022/09/05 05:09:29;;;;;;;0.47;0.47;;;24.40;65.90;;;;;;4983528;28;20125;-21
2022/09/05 05:11:56;;;;;;;1.77;0.50;;;24.40;66.30;;;;;;5015770;28;20057;-20
2022/09/05 05:14:42;;;;;;;2.63;0.40;;;24.30;65.90;;;;;;4996730;28;20049;-20
2022/09/05 05:17:15;;;;;;;7.32;0.90;;;24.40;66.10;;;;;;4994378;28;20038;-20
2022/09/05 05:19:49;;;;;;;0.60;0.50;;;24.40;66.50;;;;;;4848069;28;10001357;-20
2022/09/05 05:22:15;;;;;;;0.60;0.60;;;24.40;66.90;;;;;;5076535;28;20343;-24
2022/09/05 05:24:43;;;;;;;3.30;0.68;;;24.40;66.70;;;;;;5002621;28;20579;-25
2022/09/05 05:27:23;;;;;;;0.57;0.50;;;24.40;66.60;;;;;;4993955;28;20504;-21
2022/09/05 05:29:56;;;;;;;2.53;0.80;;;24.30;66.60;;;;;;4996399;28;20347;-20
2022/09/05 05:32:29;;;;;;;1.88;0.70;;;24.30;67.00;;;;;;4995102;28;20134;-20
2022/09/05 05:35:01;;;;;;;0.50;0.50;;;24.30;67.00;;;;;;4999257;28;20046;-24
2022/09/05 05:37:42;;;;;;;1.42;0.60;;;24.40;66.70;;;;;;4993090;28;20046;-23
2022/09/05 05:40:11;;;;;;;0.70;0.70;;;24.30;66.50;;;;;;4991880;28;20111;-20
2022/09/05 05:42:38;;;;;;;0.50;0.50;;;24.40;66.70;;;;;;4975507;28;20515;-21
2022/09/05 05:45:05;;;;;;;1.95;0.63;;;24.40;66.80;;;;;;4993547;28;20600;-20
2022/09/05 05:47:34;;;;;;;0.55;0.55;;;24.40;66.60;;;;;;4993676;28;20209;-21
2022/09/05 05:50:24;;;;;;;0.60;0.50;;;24.40;66.70;;;;;;4648088;28;10000549;-23
2022/09/05 05:53:01;;;;;;;0.98;0.60;;;24.40;66.90;;;;;;4998097;28;20049;-21
2022/09/05 05:56:02;;;;;;;1.13;0.60;;;24.40;66.80;;;;;;4997799;28;20049;-24
2022/09/05 05:58:41;;;;;;;0.80;0.80;;;24.40;66.60;;;;;;5000213;28;20053;-21
2022/09/05 06:01:13;;;;;;;0.60;0.60;;;24.40;66.50;;;;;;4999520;28;20121;-20
2022/09/05 06:04:03;;;;;;;0.90;0.70;;;24.40;66.50;;;;;;4996642;28;20049;-21
2022/09/05 06:06:43;;;;;;;2.78;0.60;;;24.40;66.50;;;;;;5002269;28;20109;-21
2022/09/05 06:09:38;;;;;;;1.48;1.10;;;24.40;66.60;;;;;;4998593;28;20030;-20
2022/09/05 06:12:16;;;;;;;;;;;24.30;66.80;;;;;;4998163;28;20065;-25
2022/09/05 06:15:05;;;;;;;1.58;1.48;;;24.10;67.20;;;;;;5003508;28;19924;-22
2022/09/05 06:17:42;;;;;;;1.95;1.35;;;23.90;68.30;;;;;;5000150;28;20069;-21
2022/09/05 06:20:37;;;;;;;2.55;1.23;;;23.70;68.90;;;;;;5002009;28;20049;-23
2022/09/05 06:23:03;;;;;;;1.30;1.20;;;23.70;68.80;;;;;;4999573;28;20528;-21
2022/09/05 06:25:46;;;;;;;1.95;1.42;;;23.60;69.00;;;;;;5001897;28;20050;-21
2022/09/05 06:28:47;;;;;;;1.33;1.20;;;23.70;69.10;;;;;;5001841;28;20038;-21
2022/09/05 06:31:18;;;;;;;4.32;1.10;;;23.80;68.90;;;;;;5080133;28;20378;-22
2022/09/05 06:34:20;;;;;;;2.15;1.20;;;23.70;69.10;;;;;;5079174;28;20036;-23
2022/09/05 06:37:16;;;;;;;1.30;1.08;;;23.60;69.00;;;;;;5078937;28;20051;-23
2022/09/05 06:39:56;;;;;;;1.63;1.52;;;23.60;69.30;;;;;;5066577;28;20040;-24
2022/09/05 06:43:03;;;;;;;1.40;1.30;;;23.60;69.20;;;;;;5080666;28;20048;-20
2022/09/05 06:45:35;;;;;;;1.40;1.27;;;23.50;69.70;;;;;;5064077;28;20072;-21
2022/09/05 06:48:22;;;;;;;1.25;1.20;;;23.50;69.80;;;;;;5081352;28;20035;-21
2022/09/05 06:51:21;;;;;;;1.70;1.60;;;23.40;70.10;;;;;;5048289;28;20044;-28
2022/09/05 06:54:20;;;;;;;1.65;1.30;;;23.40;70.30;;;;;;5067377;28;20046;-45
2022/09/05 06:56:48;;;;;;;1.58;1.30;;;23.30;70.70;;;;;;5080521;28;20044;-48
2022/09/05 06:59:56;;;;;;;1.77;1.23;;;23.30;70.90;;;;;;5083224;28;20407;-49
2022/09/05 07:02:35;;;;;;;1.42;1.30;;;23.40;71.50;;;;;;5054129;28;20131;-44
2022/09/05 07:05:12;;;;;;;1.55;1.30;;;23.40;70.70;;;;;;5082317;28;20164;-46
2022/09/05 07:07:44;;;;;;;1.70;1.45;;;23.30;70.90;;;;;;5011896;28;20447;-37
2022/09/05 07:10:37;;;;;;;1.42;1.33;;;23.30;70.80;;;;;;5002952;28;20045;-50
2022/09/05 07:13:21;;;;;;;1.92;1.83;;;23.20;71.30;;;;;;4998872;28;20144;-47
2022/09/05 07:16:18;;;;;;;2.00;1.20;;;23.20;71.90;;;;;;4994648;28;20049;-43
2022/09/05 07:18:49;;;;;;;4.35;1.50;;;23.10;71.80;;;;;;5000456;28;20080;-46
2022/09/05 07:21:18;;;;;;;1.33;1.15;;;23.20;71.90;;;;;;5001801;28;20459;-50
2022/09/05 07:24:04;;;;;;;1.50;1.17;;;23.20;72.20;;;;;;5001674;28;20053;-38
2022/09/05 07:26:33;;;;;;;2.55;1.38;;;23.10;72.60;;;;;;5004520;28;20041;-57
2022/09/05 07:29:04;;;;;;;1.75;1.45;;;23.10;72.80;;;;;;4998892;28;20191;-53
2022/09/05 07:31:31;;;;;;;1.30;1.20;;;23.00;73.20;;;;;;4999512;28;20053;-46
2022/09/05 07:34:16;;;;;;;2.92;1.50;;;23.10;73.90;;;;;;5000689;28;20042;-49
2022/09/05 07:36:42;;;;;;;;;;;23.10;73.20;;;;;;5002761;28;20121;-49
2022/09/05 07:39:08;;;;;;;2.10;1.75;;;23.20;72.70;;;;;;5000791;28;20412;-50
2022/09/05 07:41:38;;;;;;;1.52;1.42;;;23.10;73.30;;;;;;4987473;28;20046;-53
2022/09/05 07:44:09;;;;;;;1.70;1.48;;;23.10;73.50;;;;;;5003861;28;20420;-55
2022/09/05 07:46:38;;;;;;;1.88;1.52;;;23.10;73.60;;;;;;5002398;28;20057;-41
2022/09/05 07:49:06;;;;;;;1.63;1.45;;;23.10;73.60;;;;;;4997846;28;20046;-52
2022/09/05 07:51:33;;;;;;;2.00;1.20;;;23.10;73.70;;;;;;4998684;28;20054;-47
2022/09/05 07:54:09;;;;;;;1.70;1.60;;;23.00;73.80;;;;;;5007122;28;20547;-46
2022/09/05 07:56:59;;;;;;;1.67;1.58;;;23.00;73.90;;;;;;5003068;28;20042;-55
2022/09/05 07:59:25;;;;;;;1.52;1.42;;;22.90;74.20;;;;;;4994329;28;20492;-51
2022/09/05 08:01:52;;;;;;;2.35;1.70;;;22.80;74.30;;;;;;4999948;28;20041;-59
2022/09/05 08:04:27;;;;;;;2.05;1.60;;;22.70;74.80;;;;;;4983652;28;20515;-58
2022/09/05 08:06:54;;;;;;;2.60;1.85;;;22.70;74.90;;;;;;5004274;28;20073;-49
2022/09/05 08:09:32;;;;;;;3.88;1.88;;;22.60;75.90;;;;;;4979909;28;20073;-48
2022/09/05 08:12:25;;;;;;;3.15;1.60;;;22.70;74.60;;;;;;4997706;28;20096;-54
2022/09/05 08:15:13;;;;;;;2.35;1.45;;;22.90;74.20;;;;;;4987315;28;20538;-58
2022/09/05 08:18:04;;;;;;;1.85;1.58;;;22.80;74.50;;;;;;5000123;28;20079;-39
2022/09/05 08:20:34;;;;;;;1.70;1.60;;;22.80;74.30;;;;;;5009103;28;20050;-46
2022/09/05 08:23:26;;;;;;;3.08;1.52;;;22.80;74.40;;;;;;4998603;28;20427;-37
2022/09/05 08:26:10;;;;;;;3.03;1.65;;;22.80;74.50;;;;;;4999003;28;20051;-46
2022/09/05 08:29:00;;;;;;;1.63;1.52;;;22.80;73.90;;;;;;4997257;28;20137;-47
2022/09/05 08:31:37;;;;;;;1.20;1.00;;;22.90;73.60;;;;;;4999647;28;20488;-56
2022/09/05 08:34:03;;;;;;;1.60;1.50;;;23.00;73.50;;;;;;4997101;28;20034;-41
2022/09/05 08:36:40;;;;;;;3.08;1.50;;;22.70;73.70;;;;;;4994042;28;20053;-37
2022/09/05 08:39:06;;;;;;;1.20;1.15;;;22.60;74.30;;;;;;4977754;28;20831;-39
2022/09/05 08:41:54;;;;;;;1.88;1.15;;;22.70;73.80;;;;;;4997922;28;20054;-44
2022/09/05 08:44:23;;;;;;;1.70;1.05;;;22.80;73.70;;;;;;5007776;28;20535;-37
2022/09/05 08:46:48;;;;;;;1.65;1.35;;;23.00;73.00;;;;;;4997139;28;20037;-37
2022/09/05 08:49:34;;;;;;;1.60;1.10;;;23.00;72.80;;;;;;4996296;28;20045;-37
2022/09/05 08:52:21;;;;;;;1.25;1.15;;;23.00;72.50;;;;;;4995341;28;20179;-43
2022/09/05 08:55:03;;;;;;;1.27;1.17;;;23.10;72.00;;;;;;4994994;28;20042;-47
2022/09/05 08:57:44;;;;;;;1.13;0.90;;;23.10;71.70;;;;;;5009404;28;20465;-55
2022/09/05 09:00:11;;;;;;;0.93;0.93;;;23.20;71.60;;;;;;4997744;28;20037;-44
2022/09/05 09:02:55;;;;;;;1.95;0.90;;;23.20;71.50;;;;;;4997580;28;20046;-49
2022/09/05 09:05:27;;;;;;;3.28;1.20;;;23.20;71.50;;;;;;4997475;28;20080;-41
2022/09/05 09:08:11;;;;;;;1.52;1.10;;;23.30;70.40;;;;;;5000027;28;20034;-46
2022/09/05 09:10:43;;;;;;;0.80;0.80;;;23.30;70.30;;;;;;4995989;28;20124;-46
2022/09/05 09:13:14;;;;;;;2.17;1.13;;;23.30;70.10;;;;;;4998515;28;20040;-46
2022/09/05 09:16:03;;;;;;;0.98;0.90;;;23.40;69.90;;;;;;5015013;28;20034;-45
2022/09/05 09:18:49;;;;;;;1.10;1.00;;;23.40;69.80;;;;;;4996597;28;20042;-46
2022/09/05 09:21:36;;;;;;;1.55;0.90;;;23.50;69.50;;;;;;5013264;28;20105;-45
2022/09/05 09:24:23;;;;;;;1.63;0.88;;;23.50;69.20;;;;;;4997337;28;20042;-38
2022/09/05 09:27:01;;;;;;;0.85;0.70;;;23.60;69.30;;;;;;5000546;28;20498;-48
2022/09/05 09:29:27;;;;;;;0.70;0.70;;;23.50;69.50;;;;;;4998754;28;20108;-46
2022/09/05 09:32:12;;;;;;;1.40;0.80;;;23.60;69.20;;;;;;5000896;28;20529;-43
2022/09/05 09:34:41;;;;;;;0.80;0.80;;;23.60;69.70;;;;;;4997821;28;20034;-44
2022/09/05 09:37:39;;;;;;;0.93;0.93;;;23.60;69.40;;;;;;4998817;28;20030;-56
2022/09/05 09:40:29;;;;;;;0.85;0.73;;;23.70;69.60;;;;;;4998070;28;20072;-49
2022/09/05 09:43:26;;;;;;;1.42;0.60;;;23.70;69.10;;;;;;4995189;28;20034;-37
2022/09/05 09:46:00;;;;;;;0.73;0.73;;;23.70;68.80;;;;;;4999334;28;20038;-49
2022/09/05 09:48:41;;;;;;;0.88;0.70;;;23.80;69.10;;;;;;5003434;28;20040;-49
2022/09/05 09:51:12;;;;;;;0.73;0.70;;;23.70;69.30;;;;;;4999271;28;20496;-44
2022/09/05 09:53:44;;;;;;;3.88;0.63;;;23.70;69.30;;;;;;4998889;28;20099;-47
2022/09/05 09:56:19;;;;;;;1.40;0.77;;;23.70;69.50;;;;;;5001627;28;20030;-42
2022/09/05 09:59:21;;;;;;;0.60;0.60;;;23.70;69.70;;;;;;5002845;28;20123;-44
2022/09/05 10:01:59;;;;;;;0.85;0.85;;;23.70;69.50;;;;;;4998669;28;20048;-54
2022/09/05 10:04:34;;;;;;;1.17;0.82;;;23.70;69.80;;;;;;4998532;28;20038;-45
2022/09/05 10:07:14;;;;;;;1.35;0.80;;;23.80;69.20;;;;;;5008227;28;20057;-46
2022/09/05 10:09:59;;;;;;;0.50;0.50;;;23.80;69.80;;;;;;5000151;28;20129;-49
2022/09/05 10:12:37;;;;;;;1.15;0.90;;;23.80;68.60;;;;;;5000779;28;20038;-45
2022/09/05 10:15:25;;;;;;;2.22;0.65;;;23.80;69.40;;;;;;4998911;28;20041;-48
2022/09/05 10:17:51;;;;;;;1.67;0.70;;;23.90;68.40;;;;;;5000293;28;20468;-47
2022/09/05 10:20:28;;;;;;;3.10;0.90;;;23.90;69.20;;;;;;4997964;28;20527;-39
2022/09/05 10:23:01;;;;;;;1.50;0.80;;;23.90;69.60;;;;;;5001606;28;20057;-53
2022/09/05 10:25:33;;;;;;;1.30;0.80;;;23.90;69.40;;;;;;4998354;28;20500;-57
2022/09/05 10:27:59;;;;;;;1.08;0.90;;;23.90;69.10;;;;;;4997644;28;20034;-58
2022/09/05 10:30:46;;;;;;;1.77;0.80;;;23.90;69.50;;;;;;4996337;28;20123;-45
2022/09/05 10:33:18;;;;;;;2.92;1.15;;;23.90;68.80;;;;;;5001659;28;20039;-50
2022/09/05 10:35:48;;;;;;;1.27;0.80;;;23.90;68.60;;;;;;4999572;28;20121;-57
2022/09/05 10:38:20;;;;;;;2.10;0.60;;;23.90;69.30;;;;;;4998493;28;20042;-59
2022/09/05 10:40:47;;;;;;;1.42;0.93;;;23.90;68.80;;;;;;4995535;28;20042;-50
2022/09/05 10:43:27;;;;;;;2.97;1.40;;;23.90;69.20;;;;;;5001413;28;20412;-55
2022/09/05 10:45:56;;;;;;;2.00;0.90;;;23.90;68.40;;;;;;4999779;28;20145;-52
2022/09/05 10:48:22;;;;;;;0.82;0.73;;;23.90;68.90;;;;;;4996367;28;20143;-56
2022/09/05 10:51:00;;;;;;;0.75;0.70;;;23.90;68.40;;;;;;4999246;28;20540;-48
2022/09/05 10:53:46;;;;;;;1.13;0.90;;;23.90;68.40;;;;;;5069037;28;20177;-48
2022/09/05 10:56:27;;;;;;;0.80;0.60;;;23.90;68.30;;;;;;4998293;28;20045;-52
2022/09/05 10:59:14;;;;;;;0.93;0.80;;;24.00;68.30;;;;;;4998121;28;20046;-50
2022/09/05 11:01:47;;;;;;;0.90;0.90;;;23.90;68.90;;;;;;4996689;28;20062;-59
2022/09/05 11:04:40;;;;;;;0.82;0.82;;;23.90;68.00;;;;;;4980152;28;20049;-46
2022/09/05 11:07:15;;;;;;;0.82;0.80;;;24.00;68.00;;;;;;4999572;28;20412;-58
2022/09/05 11:09:48;;;;;;;1.13;0.80;;;24.00;68.40;;;;;;4996547;28;20441;-44
2022/09/05 11:12:37;;;;;;;;;;;24.00;68.10;;;;;;4995500;28;20125;-51
2022/09/05 11:15:28;;;;;;;1.08;0.73;;;24.00;67.80;;;;;;4993458;28;20422;-62
2022/09/05 11:18:06;;;;;;;0.85;0.70;;;24.00;68.00;;;;;;4998828;28;20046;-52
2022/09/05 11:21:07;;;;;;;0.80;0.80;;;24.10;67.50;;;;;;5001112;28;20061;-59
2022/09/05 11:23:40;;;;;;;1.13;0.60;;;24.10;67.40;;;;;;4996529;28;20038;-55
2022/09/05 11:26:13;;;;;;;0.73;0.52;;;24.10;67.50;;;;;;5002242;28;20045;-52
2022/09/05 11:28:52;;;;;;;0.50;0.50;;;24.20;67.30;;;;;;4997064;28;20049;-51
2022/09/05 11:31:19;;;;;;;0.50;0.50;;;24.20;67.30;;;;;;4997827;28;20304;-51
2022/09/05 11:34:01;;;;;;;0.63;0.63;;;24.20;67.00;;;;;;4993430;28;20096;-54
2022/09/05 11:36:46;;;;;;;0.60;0.60;;;24.10;67.10;;;;;;4995145;28;20163;-47
2022/09/05 11:39:37;;;;;;;0.88;0.60;;;24.20;67.30;;;;;;4648875;28;9999939;-49
2022/09/05 11:42:16;;;;;;;0.60;0.60;;;24.20;67.60;;;;;;4994249;28;20171;-42
2022/09/05 11:44:52;;;;;;;0.60;0.60;;;24.20;67.30;;;;;;4996170;28;20057;-40
2022/09/05 11:47:36;;;;;;;0.40;0.40;;;24.20;67.20;;;;;;5017468;28;20114;-45
2022/09/05 11:50:24;;;;;;;0.75;0.60;;;24.20;67.60;;;;;;4996860;28;20334;-55
2022/09/05 11:53:08;;;;;;;0.52;0.50;;;24.20;67.40;;;;;;5000039;28;20549;-45
2022/09/05 11:56:04;;;;;;;0.85;0.47;;;24.20;67.50;;;;;;4994606;28;20186;-43
2022/09/05 11:58:49;;;;;;;0.70;0.70;;;24.30;67.80;;;;;;4648239;28;10000740;-50
2022/09/05 12:01:22;;;;;;;1.00;0.60;;;24.30;67.60;;;;;;5003469;28;20511;-53
2022/09/05 12:04:07;;;;;;;0.88;0.50;;;24.30;67.60;;;;;;4999177;28;20049;-54
2022/09/05 12:06:56;;;;;;;0.68;0.47;;;24.30;67.40;;;;;;5002044;28;20038;-49
2022/09/05 12:09:44;;;;;;;0.40;0.40;;;24.30;67.60;;;;;;5004565;28;20046;-39
2022/09/05 12:12:34;;;;;;;0.70;0.68;;;24.30;67.20;;;;;;4998624;28;20026;-53
2022/09/05 12:15:25;;;;;;;1.70;0.90;;;24.30;67.80;;;;;;5001271;28;20548;-51
2022/09/05 12:18:14;;;;;;;0.63;0.50;;;24.30;67.40;;;;;;4999507;28;20065;-48
2022/09/05 12:20:59;;;;;;;1.15;0.85;;;24.30;67.20;;;;;;5002986;28;20385;-42
2022/09/05 12:23:54;;;;;;;0.93;0.57;;;24.30;67.20;;;;;;5000684;28;20042;-44
2022/09/05 12:26:31;;;;;;;2.42;0.57;;;24.30;67.10;;;;;;5005385;28;20045;-51
2022/09/05 12:29:05;;;;;;;0.60;0.50;;;24.30;67.10;;;;;;4997252;28;20180;-55
2022/09/05 12:31:37;;;;;;;0.60;0.60;;;24.40;67.10;;;;;;4984292;28;20179;-55
2022/09/05 12:34:08;;;;;;;0.82;0.50;;;24.40;67.10;;;;;;5001274;28;20034;-50
2022/09/05 12:36:37;;;;;;;0.55;0.50;;;24.40;67.10;;;;;;4999016;28;20042;-42
2022/09/05 12:39:21;;;;;;;0.50;0.50;;;24.40;67.00;;;;;;4994570;28;20037;-51
2022/09/05 12:41:53;;;;;;;;;;;24.40;67.10;;;;;;5002073;28;20052;-51
2022/09/05 12:44:29;;;;;;;0.30;0.30;;;24.40;67.30;;;;;;5002015;28;20004;-48
2022/09/05 12:47:06;;;;;;;0.60;0.60;;;24.40;67.00;;;;;;4995979;28;20052;-59
2022/09/05 12:49:40;;;;;;;0.50;0.50;;;24.40;67.00;;;;;;5013083;28;20042;-48
2022/09/05 12:52:11;;;;;;;0.25;0.25;;;24.40;67.00;;;;;;5002899;28;20053;-44
2022/09/05 12:54:49;;;;;;;0.43;0.40;;;24.40;67.10;;;;;;4995565;28;20056;-45
2022/09/05 12:57:27;;;;;;;1.00;0.63;;;24.40;67.00;;;;;;4998975;28;20034;-42
2022/09/05 12:59:55;;;;;;;0.52;0.40;;;24.40;67.10;;;;;;4996961;28;20409;-56
2022/09/05 13:02:22;;;;;;;0.60;0.60;;;24.40;67.00;;;;;;4998940;28;20082;-40
2022/09/05 13:04:56;;;;;;;0.70;0.52;;;24.50;67.10;;;;;;5013602;28;20439;-43
2022/09/05 13:07:26;;;;;;;1.48;0.60;;;24.40;66.90;;;;;;4985657;28;20075;-42
2022/09/05 13:10:00;;;;;;;0.45;0.45;;;24.40;66.80;;;;;;4998941;28;20038;-49
2022/09/05 13:12:30;;;;;;;1.40;0.70;;;24.50;66.80;;;;;;4982647;28;20041;-47
2022/09/05 13:15:10;;;;;;;0.85;0.40;;;24.50;67.10;;;;;;5000132;28;20046;-37
2022/09/05 13:18:00;;;;;;;0.57;0.50;;;24.50;66.60;;;;;;4999373;28;20053;-48
2022/09/05 13:20:35;;;;;;;0.65;0.65;;;24.50;66.60;;;;;;4998488;28;20094;-41
2022/09/05 13:23:34;;;;;;;0.45;0.45;;;24.50;66.60;;;;;;4985029;28;20042;-42
2022/09/05 13:26:18;;;;;;;1.77;0.40;;;24.50;66.60;;;;;;5003352;28;20102;-49
2022/09/05 13:29:01;;;;;;;0.40;0.40;;;24.50;66.50;;;;;;5000511;28;20121;-40
2022/09/05 13:31:39;;;;;;;0.43;0.43;;;24.50;66.40;;;;;;4985204;28;20042;-53
2022/09/05 13:34:11;;;;;;;2.15;0.60;;;24.60;66.50;;;;;;5006584;28;20034;-51
2022/09/05 13:36:49;;;;;;;0.60;0.40;;;24.60;66.40;;;;;;4999098;28;20042;-49
2022/09/05 13:39:16;;;;;;;0.70;0.52;;;24.60;66.30;;;;;;5003702;28;20098;-57
2022/09/05 13:41:50;;;;;;;0.80;0.80;;;24.60;66.30;;;;;;5003103;28;20096;-49
2022/09/05 13:44:19;;;;;;;0.50;0.38;;;24.60;66.30;;;;;;5001828;28;20145;-38
2022/09/05 13:47:00;;;;;;;0.30;0.30;;;24.60;66.20;;;;;;4999972;28;20052;-40
2022/09/05 13:49:35;;;;;;;0.73;0.50;;;24.60;66.10;;;;;;5004001;28;20046;-47
2022/09/05 13:52:02;;;;;;;0.40;0.40;;;24.60;66.20;;;;;;4985708;28;20125;-44
2022/09/05 13:54:38;;;;;;;0.50;0.30;;;24.60;66.20;;;;;;5001658;28;20057;-45